createdAt,value
2023-03-17T00:00:02.078Z,1.45
2023-03-17T00:03:25.015Z,1.13
2023-03-17T00:06:29.764Z,1.00
2023-03-17T00:09:31.192Z,1.10
2023-03-17T00:12:32.641Z,1.20
2023-03-17T00:15:34.444Z,1.05
2023-03-17T00:18:37.052Z,1.30
2023-03-17T00:21:38.582Z,1.27
2023-03-17T00:24:40.041Z,1.38
2023-03-17T00:27:41.432Z,1.10
2023-03-17T00:30:43.302Z,1.15
2023-03-17T00:33:45.676Z,1.40
2023-03-17T00:36:49.430Z,1.08
2023-03-17T00:42:53.200Z,1.33
2023-03-17T00:45:54.708Z,1.55
2023-03-17T00:48:56.254Z,1.15
2023-03-17T00:51:57.719Z,1.25
2023-03-17T00:54:59.162Z,1.20
2023-03-17T00:58:00.610Z,1.67
2023-03-17T01:01:02.161Z,1.42
2023-03-17T01:04:03.697Z,1.23
2023-03-17T01:07:05.624Z,1.40
2023-03-17T01:10:15.993Z,1.40
2023-03-17T01:13:17.460Z,1.98
2023-03-17T01:16:18.880Z,1.60
2023-03-17T01:19:21.067Z,1.65
2023-03-17T01:22:22.647Z,1.52
2023-03-17T01:25:24.353Z,1.70
2023-03-17T01:28:25.810Z,1.52
2023-03-17T01:31:27.335Z,1.42
2023-03-17T01:34:29.139Z,1.40
2023-03-17T01:37:30.724Z,1.38
2023-03-17T01:40:35.001Z,1.23
2023-03-17T01:43:36.415Z,1.30
2023-03-17T01:46:37.885Z,1.30
2023-03-17T01:49:39.452Z,1.48
2023-03-17T01:52:41.001Z,1.50
2023-03-17T01:55:44.527Z,1.45
2023-03-17T01:58:48.670Z,1.45
2023-03-17T02:01:54.568Z,1.20
2023-03-17T02:04:57.039Z,1.60
2023-03-17T02:07:58.979Z,1.17
2023-03-17T02:11:04.116Z,1.10
2023-03-17T02:14:05.595Z,1.65
2023-03-17T02:17:07.337Z,1.50
2023-03-17T02:20:32.656Z,1.50
2023-03-17T02:23:34.179Z,1.70
2023-03-17T02:26:36.817Z,1.30
2023-03-17T02:29:38.337Z,1.10
2023-03-17T02:32:39.921Z,1.20
2023-03-17T02:35:41.585Z,1.02
2023-03-17T02:38:43.203Z,1.30
2023-03-17T02:41:44.650Z,1.40
2023-03-17T02:44:46.132Z,1.23
2023-03-17T02:47:49.369Z,1.40
2023-03-17T02:50:50.788Z,1.20
2023-03-17T02:53:52.230Z,1.27
2023-03-17T02:56:53.668Z,1.30
2023-03-17T02:59:55.070Z,1.48
2023-03-17T03:02:56.703Z,2.10
2023-03-17T03:05:58.249Z,1.60
2023-03-17T03:08:59.719Z,1.60
2023-03-17T03:12:01.209Z,1.77
2023-03-17T03:15:02.705Z,1.90
2023-03-17T03:18:04.159Z,1.45
2023-03-17T03:21:06.190Z,1.50
2023-03-17T03:24:08.465Z,1.60
2023-03-17T03:27:10.006Z,1.30
2023-03-17T03:30:11.820Z,1.33
2023-03-17T03:33:14.691Z,1.50
2023-03-17T03:36:16.192Z,1.70
2023-03-17T03:39:17.671Z,1.60
2023-03-17T03:42:19.100Z,1.75
2023-03-17T03:45:20.588Z,1.40
2023-03-17T03:48:22.555Z,1.50
2023-03-17T03:51:24.154Z,1.70
2023-03-17T03:54:25.643Z,1.67
2023-03-17T03:57:27.234Z,1.98
2023-03-17T04:00:29.235Z,1.95
2023-03-17T04:03:30.751Z,1.77
2023-03-17T04:06:32.280Z,1.67
2023-03-17T04:09:33.731Z,1.60
2023-03-17T04:12:35.294Z,1.80
2023-03-17T04:15:36.920Z,1.63
2023-03-17T04:18:38.392Z,1.60
2023-03-17T04:21:39.856Z,1.50
2023-03-17T04:24:41.280Z,2.13
2023-03-17T04:27:42.871Z,1.80
2023-03-17T04:30:44.272Z,1.63
2023-03-17T04:33:45.702Z,1.60
2023-03-17T04:36:47.883Z,1.77
2023-03-17T04:39:49.329Z,1.98
2023-03-17T04:42:50.733Z,1.67
2023-03-17T04:45:52.188Z,2.20
2023-03-17T04:48:53.897Z,2.08
2023-03-17T04:51:55.391Z,1.70
2023-03-17T04:54:57.029Z,1.92
2023-03-17T04:57:58.450Z,1.90
2023-03-17T05:01:00.037Z,1.70
2023-03-17T05:04:01.513Z,1.92
2023-03-17T05:07:03.084Z,1.75
2023-03-17T05:10:05.212Z,2.15
2023-03-17T05:13:06.708Z,2.22
2023-03-17T05:16:09.061Z,2.70
2023-03-17T05:19:10.575Z,2.27
2023-03-17T05:22:12.022Z,1.83
2023-03-17T05:25:13.470Z,2.17
2023-03-17T05:28:15.171Z,1.88
2023-03-17T05:31:16.726Z,2.70
2023-03-17T05:34:18.231Z,3.28
2023-03-17T05:37:19.683Z,2.30
2023-03-17T05:40:22.596Z,2.40
2023-03-17T05:43:25.407Z,2.30
2023-03-17T05:46:26.956Z,2.40
2023-03-17T05:49:28.583Z,2.67
2023-03-17T05:52:30.872Z,2.50
2023-03-17T05:55:32.349Z,2.58
2023-03-17T05:58:33.838Z,2.70
2023-03-17T06:01:35.292Z,2.40
2023-03-17T06:04:37.654Z,2.53
2023-03-17T06:07:51.598Z,2.58
2023-03-17T06:10:56.159Z,2.63
2023-03-17T06:13:57.641Z,2.78
2023-03-17T06:16:59.045Z,2.38
2023-03-17T06:20:00.453Z,3.30
2023-03-17T06:23:05.334Z,2.40
2023-03-17T06:26:08.460Z,2.65
2023-03-17T06:29:10.018Z,2.70
2023-03-17T06:32:20.276Z,2.63
2023-03-17T06:35:22.321Z,2.60
2023-03-17T06:38:23.728Z,2.45
2023-03-17T06:41:25.180Z,3.03
2023-03-17T06:44:26.599Z,2.45
2023-03-17T06:47:27.995Z,2.72
2023-03-17T06:50:29.950Z,3.25
2023-03-17T06:53:31.606Z,2.90
2023-03-17T06:56:33.041Z,3.10
2023-03-17T06:59:34.458Z,2.97
2023-03-17T07:02:35.859Z,3.28
2023-03-17T07:05:37.318Z,2.70
2023-03-17T07:08:38.691Z,2.85
2023-03-17T07:11:40.103Z,3.90
2023-03-17T07:14:41.631Z,2.70
2023-03-17T07:17:43.208Z,3.08
2023-03-17T07:20:44.708Z,3.38
2023-03-17T07:23:46.090Z,3.17
2023-03-17T07:26:47.449Z,2.97
2023-03-17T07:29:48.882Z,3.22
2023-03-17T07:32:50.284Z,3.40
2023-03-17T07:35:51.932Z,3.13
2023-03-17T07:38:53.381Z,3.25
2023-03-17T07:41:54.983Z,2.60
2023-03-17T07:44:56.478Z,3.33
2023-03-17T07:47:57.876Z,2.92
2023-03-17T07:50:59.441Z,3.40
2023-03-17T07:54:01.243Z,3.03
2023-03-17T07:57:03.301Z,3.40
2023-03-17T08:00:06.569Z,2.50
2023-03-17T08:03:12.791Z,2.85
2023-03-17T08:06:14.224Z,3.22
2023-03-17T08:09:15.650Z,2.60
2023-03-17T08:12:17.069Z,3.22
2023-03-17T08:15:18.701Z,2.63
2023-03-17T08:18:20.074Z,3.45
2023-03-17T08:21:21.499Z,3.00
2023-03-17T08:24:22.878Z,2.78
2023-03-17T08:27:24.712Z,3.03
2023-03-17T08:30:26.161Z,2.88
2023-03-17T08:33:27.577Z,2.97
2023-03-17T08:36:29.327Z,2.97
2023-03-17T08:39:30.928Z,3.17
2023-03-17T08:42:32.329Z,3.50
2023-03-17T08:45:33.759Z,3.22
2023-03-17T08:48:36.484Z,2.90
2023-03-17T08:51:38.792Z,2.97
2023-03-17T08:54:40.173Z,3.13
2023-03-17T08:57:42.777Z,3.05
2023-03-17T09:00:44.159Z,3.30
2023-03-17T09:03:45.559Z,2.72
2023-03-17T09:07:02.272Z,2.95
2023-03-17T09:10:06.080Z,2.80
2023-03-17T09:13:07.464Z,2.67
2023-03-17T09:16:09.022Z,3.15
2023-03-17T09:19:10.470Z,2.75
2023-03-17T09:22:13.919Z,3.30
2023-03-17T09:25:16.456Z,2.67
2023-03-17T09:28:18.098Z,3.40
2023-03-17T09:31:19.564Z,2.78
2023-03-17T09:34:20.973Z,2.80
2023-03-17T09:37:22.385Z,2.78
2023-03-17T09:40:31.209Z,2.80
2023-03-17T09:43:47.947Z,2.90
2023-03-17T09:47:20.841Z,2.97
2023-03-17T09:50:27.070Z,2.65
2023-03-17T09:53:40.599Z,2.67
2023-03-17T09:59:47.787Z,2.88
2023-03-17T10:02:49.229Z,2.90
2023-03-17T10:05:50.994Z,3.00
2023-03-17T10:09:02.218Z,2.88
2023-03-17T10:12:08.320Z,2.75
2023-03-17T10:15:54.975Z,3.40
2023-03-17T10:19:09.758Z,2.60
2023-03-17T10:22:21.038Z,3.20
2023-03-17T10:25:34.797Z,3.17
2023-03-17T10:28:36.596Z,2.92
2023-03-17T10:31:38.266Z,2.67
2023-03-17T10:34:42.023Z,3.05
2023-03-17T10:37:46.445Z,2.28
2023-03-17T10:40:58.826Z,2.60
2023-03-17T10:44:00.377Z,2.53
2023-03-17T10:47:01.892Z,2.50
2023-03-17T10:50:20.406Z,2.92
2023-03-17T10:53:23.972Z,2.90
2023-03-17T10:56:28.223Z,3.30
2023-03-17T10:59:32.130Z,2.80
2023-03-17T11:02:44.289Z,2.47
2023-03-17T11:06:03.346Z,2.60
2023-03-17T11:09:09.182Z,2.45
2023-03-17T11:12:28.546Z,2.80
2023-03-17T11:15:35.553Z,2.58
2023-03-17T11:18:39.286Z,2.88
2023-03-17T11:21:57.348Z,2.92
2023-03-17T11:25:19.752Z,3.22
2023-03-17T11:28:22.541Z,2.83
2023-03-17T11:31:32.724Z,2.47
2023-03-17T11:35:03.528Z,3.15
2023-03-17T11:38:21.819Z,2.90
2023-03-17T11:41:58.560Z,3.03
2023-03-17T11:44:59.977Z,3.03
2023-03-17T11:48:13.220Z,2.63
2023-03-17T11:51:36.495Z,2.90
2023-03-17T11:55:05.064Z,3.00
2023-03-17T11:58:12.160Z,3.00
2023-03-17T12:01:19.340Z,3.08
2023-03-17T12:04:27.300Z,3.35
2023-03-17T12:07:43.647Z,2.83
2023-03-17T12:10:52.821Z,2.80
2023-03-17T12:14:15.189Z,3.42
2023-03-17T12:17:21.015Z,3.28
2023-03-17T12:20:34.950Z,3.28
2023-03-17T12:23:45.817Z,2.95
2023-03-17T12:27:13.202Z,3.20
2023-03-17T12:30:22.256Z,3.17
2023-03-17T12:33:49.802Z,3.05
2023-03-17T12:36:52.351Z,4.20
2023-03-17T12:40:01.415Z,3.05
2023-03-17T12:43:24.015Z,2.97
2023-03-17T12:46:47.395Z,3.17
2023-03-17T12:50:27.255Z,3.13
2023-03-17T12:53:32.139Z,3.80
2023-03-17T12:56:36.079Z,3.75
2023-03-17T12:59:42.942Z,3.13
2023-03-17T13:02:49.098Z,3.30
2023-03-17T13:05:54.400Z,4.85
2023-03-17T13:08:55.943Z,3.80
2023-03-17T13:11:58.538Z,3.85
2023-03-17T13:14:59.986Z,3.85
2023-03-17T13:18:27.204Z,3.83
2023-03-17T13:21:31.034Z,3.58
2023-03-17T13:24:42.209Z,3.72
2023-03-17T13:27:45.194Z,3.50
2023-03-17T13:31:24.342Z,3.58
2023-03-17T13:34:28.165Z,3.55
2023-03-17T13:37:35.525Z,4.82
2023-03-17T13:41:00.107Z,3.00
2023-03-17T13:44:29.110Z,3.20
2023-03-17T13:47:39.640Z,3.28
2023-03-17T13:50:42.222Z,3.70
2023-03-17T13:54:06.172Z,3.20
2023-03-17T13:57:23.033Z,3.67
2023-03-17T14:00:28.890Z,4.15
2023-03-17T14:03:37.665Z,4.13
2023-03-17T14:06:39.616Z,3.60
2023-03-17T14:09:41.553Z,4.10
2023-03-17T14:13:04.789Z,3.15
2023-03-17T14:16:27.687Z,3.10
2023-03-17T14:19:29.870Z,3.33
2023-03-17T14:22:31.253Z,3.78
2023-03-17T14:25:35.922Z,3.70
2023-03-17T14:28:37.663Z,3.55
2023-03-17T14:31:39.121Z,3.63
2023-03-17T14:34:48.528Z,3.33
2023-03-17T14:37:50.027Z,3.42
2023-03-17T14:41:03.473Z,3.50
2023-03-17T14:44:08.991Z,3.90
2023-03-17T14:47:22.826Z,3.90
2023-03-17T14:50:31.996Z,3.47
2023-03-17T14:53:35.528Z,4.38
2023-03-17T14:56:40.736Z,3.38
2023-03-17T14:59:54.544Z,4.05
2023-03-17T15:02:58.392Z,3.92
2023-03-17T15:06:26.052Z,3.65
2023-03-17T15:09:29.748Z,3.83
2023-03-17T15:12:31.574Z,3.58
2023-03-17T15:15:36.979Z,3.90
2023-03-17T15:18:38.381Z,3.70
2023-03-17T15:21:41.955Z,3.45
2023-03-17T15:24:43.375Z,3.50
2023-03-17T15:27:45.763Z,3.72
2023-03-17T15:30:50.270Z,3.40
2023-03-17T15:33:52.346Z,3.97
2023-03-17T15:36:53.751Z,3.55
2023-03-17T15:39:56.384Z,3.50
2023-03-17T15:42:57.772Z,3.92
2023-03-17T15:46:06.217Z,3.30
2023-03-17T15:49:12.162Z,3.00
2023-03-17T15:52:16.776Z,4.18
2023-03-17T15:55:23.936Z,3.47
2023-03-17T15:58:25.341Z,3.30
2023-03-17T16:01:28.039Z,2.90
2023-03-17T16:04:29.554Z,3.30
2023-03-17T16:07:31.044Z,3.15
2023-03-17T16:10:33.479Z,2.80
2023-03-17T16:13:35.154Z,2.80
2023-03-17T16:16:39.466Z,3.92
2023-03-17T16:19:40.944Z,3.22
2023-03-17T16:22:43.469Z,3.58
2023-03-17T16:25:46.159Z,3.40
2023-03-17T16:28:47.893Z,3.70
2023-03-17T16:31:50.983Z,3.42
2023-03-17T16:37:54.067Z,4.15
2023-03-17T16:40:59.543Z,3.47
2023-03-17T16:44:02.252Z,4.82
2023-03-17T16:47:03.903Z,4.13
2023-03-17T16:50:14.564Z,5.40
2023-03-17T16:53:16.103Z,3.63
2023-03-17T16:56:22.400Z,3.88
2023-03-17T16:59:23.841Z,3.75
2023-03-17T17:02:25.335Z,3.78
2023-03-17T17:05:29.339Z,4.35
2023-03-17T17:08:30.725Z,8.13
2023-03-17T17:11:32.168Z,4.40
2023-03-17T17:14:33.578Z,3.90
2023-03-17T17:17:37.176Z,5.20
2023-03-17T17:20:40.182Z,5.25
2023-03-17T17:26:43.139Z,3.72
2023-03-17T17:29:44.560Z,3.45
2023-03-17T17:32:46.639Z,5.63
2023-03-17T17:35:49.193Z,4.57
2023-03-17T17:38:50.617Z,4.07
2023-03-17T17:41:52.018Z,4.13
2023-03-17T17:44:53.423Z,5.03
2023-03-17T17:47:54.858Z,4.50
2023-03-17T17:50:57.259Z,4.10
2023-03-17T17:53:58.792Z,4.43
2023-03-17T17:57:00.716Z,6.15
2023-03-17T18:00:02.618Z,4.20
2023-03-17T18:03:10.263Z,4.55
2023-03-17T18:06:12.268Z,3.92
2023-03-17T18:09:14.822Z,4.18
2023-03-17T18:12:16.254Z,4.73
2023-03-17T18:15:18.023Z,5.97
2023-03-17T18:18:19.515Z,5.70
2023-03-17T18:21:20.948Z,6.03
2023-03-17T18:24:22.372Z,5.35
2023-03-17T18:27:23.761Z,4.60
2023-03-17T18:30:28.109Z,3.85
2023-03-17T18:33:29.641Z,3.10
2023-03-17T18:36:31.050Z,4.72
2023-03-17T18:39:32.431Z,4.60
2023-03-17T18:42:33.891Z,6.38
2023-03-17T18:45:35.385Z,5.43
2023-03-17T18:48:37.186Z,5.07
2023-03-17T18:51:38.636Z,5.32
2023-03-17T18:54:40.073Z,3.70
2023-03-17T18:57:44.426Z,3.10
2023-03-17T19:00:46.438Z,3.42
2023-03-17T19:03:47.917Z,3.45
2023-03-17T19:06:49.277Z,3.25
2023-03-17T19:09:50.704Z,3.80
2023-03-17T19:12:52.133Z,4.22
2023-03-17T19:15:53.510Z,3.67
2023-03-17T19:18:56.000Z,4.25
2023-03-17T19:21:57.429Z,3.77
2023-03-17T19:24:58.815Z,3.63
2023-03-17T19:28:00.166Z,4.03
2023-03-17T19:31:01.756Z,3.20
2023-03-17T19:34:03.190Z,3.55
2023-03-17T19:37:04.602Z,3.20
2023-03-17T19:40:08.252Z,5.40
2023-03-17T19:43:09.639Z,4.05
2023-03-17T19:46:11.724Z,3.13
2023-03-17T19:49:13.638Z,3.10
2023-03-17T19:52:15.044Z,2.90
2023-03-17T19:55:16.439Z,2.78
2023-03-17T19:58:17.857Z,2.70
2023-03-17T20:01:19.323Z,2.88
2023-03-17T20:04:20.801Z,2.67
2023-03-17T20:07:22.407Z,2.05
2023-03-17T20:10:23.895Z,2.47
2023-03-17T20:13:25.303Z,2.75
2023-03-17T20:16:27.024Z,2.80
2023-03-17T20:19:28.425Z,2.88
2023-03-17T20:22:29.853Z,3.83
2023-03-17T20:25:31.254Z,3.30
2023-03-17T20:28:32.884Z,2.83
2023-03-17T20:31:35.762Z,2.88
2023-03-17T20:34:37.672Z,4.35
2023-03-17T20:37:39.270Z,5.07
2023-03-17T20:40:40.653Z,3.60
2023-03-17T20:43:42.334Z,2.50
2023-03-17T20:46:43.965Z,2.35
2023-03-17T20:49:45.530Z,2.47
2023-03-17T20:52:47.121Z,2.13
2023-03-17T20:55:48.547Z,2.67
2023-03-17T20:58:50.924Z,3.42
2023-03-17T21:01:52.364Z,4.00
2023-03-17T21:04:53.753Z,3.72
2023-03-17T21:07:55.171Z,3.35
2023-03-17T21:10:56.642Z,3.55
2023-03-17T21:13:58.131Z,3.47
2023-03-17T21:16:59.887Z,3.10
2023-03-17T21:20:01.333Z,3.30
2023-03-17T21:23:02.757Z,3.20
2023-03-17T21:26:04.644Z,3.30
2023-03-17T21:29:06.012Z,2.90
2023-03-17T21:32:07.501Z,3.00
2023-03-17T21:35:09.422Z,3.50
2023-03-17T21:38:10.915Z,3.17
2023-03-17T21:41:41.432Z,3.03
2023-03-17T21:44:42.820Z,3.38
2023-03-17T21:47:44.493Z,3.58
2023-03-17T21:50:47.279Z,3.30
2023-03-17T21:53:49.064Z,4.30
2023-03-17T21:56:50.450Z,4.10
2023-03-17T21:59:51.861Z,4.40
2023-03-17T22:02:53.245Z,5.60
2023-03-17T22:05:54.886Z,4.60
2023-03-17T22:08:56.367Z,4.47
2023-03-17T22:11:57.761Z,4.38
2023-03-17T22:14:59.173Z,4.32
2023-03-17T22:18:00.691Z,3.92
2023-03-17T22:21:02.760Z,4.40
2023-03-17T22:24:04.191Z,4.78
2023-03-17T22:27:05.689Z,4.47
2023-03-17T22:30:07.765Z,4.38
2023-03-17T22:33:09.798Z,4.28
2023-03-17T22:36:11.785Z,3.60
2023-03-17T22:39:13.224Z,3.28
2023-03-17T22:42:14.653Z,3.22
2023-03-17T22:45:16.267Z,3.38
2023-03-17T22:48:17.697Z,3.30
2023-03-17T22:51:22.346Z,3.38
2023-03-17T22:54:23.844Z,3.03
2023-03-17T22:57:25.280Z,3.20
2023-03-17T23:00:26.717Z,3.70
2023-03-17T23:03:28.617Z,3.30
2023-03-17T23:06:30.048Z,4.70
2023-03-17T23:09:31.807Z,3.50
2023-03-17T23:12:34.456Z,4.07
2023-03-17T23:15:35.924Z,4.43
2023-03-17T23:18:37.318Z,4.55
2023-03-17T23:21:39.306Z,4.25
2023-03-17T23:24:40.702Z,4.53
2023-03-17T23:27:42.239Z,4.25
2023-03-17T23:30:44.123Z,4.38
2023-03-17T23:33:47.135Z,4.57
2023-03-17T23:36:48.646Z,4.20
2023-03-17T23:39:50.103Z,4.05
2023-03-17T23:42:51.718Z,3.90
2023-03-17T23:45:53.483Z,3.85
2023-03-17T23:48:54.925Z,3.42
2023-03-17T23:51:56.427Z,3.80
2023-03-17T23:54:57.948Z,3.60
2023-03-17T23:57:59.407Z,3.58
